createdAt,value
2023-05-06T00:00:22.679Z,14.10
2023-05-06T00:02:51.860Z,14.10
2023-05-06T00:05:21.148Z,14.10
2023-05-06T00:07:51.571Z,13.40
2023-05-06T00:10:21.450Z,14.10
2023-05-06T00:12:50.329Z,14.10
2023-05-06T00:15:19.317Z,14.10
2023-05-06T00:17:48.154Z,14.10
2023-05-06T00:20:16.960Z,14.10
2023-05-06T00:22:45.864Z,14.20
2023-05-06T00:25:16.118Z,14.20
2023-05-06T00:27:45.130Z,14.10
2023-05-06T00:30:14.632Z,14.10
2023-05-06T00:32:43.498Z,14.10
2023-05-06T00:35:13.621Z,14.10
2023-05-06T00:37:42.576Z,14.10
2023-05-06T00:40:12.718Z,14.10
2023-05-06T00:42:43.270Z,14.10
2023-05-06T00:45:16.473Z,14.10
2023-05-06T00:47:45.770Z,14.10
2023-05-06T00:50:14.715Z,14.10
2023-05-06T00:52:43.829Z,14.10
2023-05-06T00:55:13.204Z,14.00
2023-05-06T00:57:44.085Z,14.00
2023-05-06T01:00:13.662Z,13.90
2023-05-06T01:02:47.465Z,13.90
2023-05-06T01:05:18.050Z,13.80
2023-05-06T01:07:53.855Z,12.80
2023-05-06T01:10:28.919Z,13.80
2023-05-06T01:13:07.543Z,13.80
2023-05-06T01:15:39.792Z,13.80
2023-05-06T01:18:12.709Z,13.80
2023-05-06T01:20:43.819Z,13.80
2023-05-06T01:23:15.501Z,14.30
2023-05-06T01:25:45.165Z,13.70
2023-05-06T01:28:15.331Z,13.70
2023-05-06T01:30:54.711Z,13.80
2023-05-06T01:33:34.056Z,13.70
2023-05-06T01:36:11.961Z,13.70
2023-05-06T01:38:48.922Z,13.70
2023-05-06T01:41:19.832Z,13.80
2023-05-06T01:43:50.802Z,13.70
2023-05-06T01:46:21.812Z,13.70
2023-05-06T01:48:54.673Z,13.70
2023-05-06T01:51:25.526Z,13.70
2023-05-06T01:53:56.104Z,13.70
2023-05-06T01:56:26.143Z,13.70
2023-05-06T01:58:55.102Z,13.70
2023-05-06T02:01:24.582Z,13.70
2023-05-06T02:03:53.685Z,13.60
2023-05-06T02:06:23.001Z,13.60
2023-05-06T02:08:51.905Z,13.60
2023-05-06T02:11:25.974Z,13.60
2023-05-06T02:14:02.201Z,13.60
2023-05-06T02:16:33.740Z,13.60
2023-05-06T02:19:03.021Z,13.60
2023-05-06T02:21:32.226Z,13.60
2023-05-06T02:24:01.386Z,13.60
2023-05-06T02:26:31.887Z,13.60
2023-05-06T02:29:01.521Z,13.60
2023-05-06T02:31:30.472Z,13.50
2023-05-06T02:33:59.473Z,13.50
2023-05-06T02:36:29.358Z,13.50
2023-05-06T02:38:58.313Z,13.50
2023-05-06T02:41:27.151Z,13.60
2023-05-06T02:43:57.475Z,13.60
2023-05-06T02:46:26.357Z,13.60
2023-05-06T02:48:55.259Z,13.60
2023-05-06T02:51:25.692Z,13.60
2023-05-06T02:53:54.762Z,13.60
2023-05-06T02:56:23.624Z,13.60
2023-05-06T02:58:52.556Z,13.60
2023-05-06T03:01:23.051Z,13.60
2023-05-06T03:03:52.034Z,13.60
2023-05-06T03:06:21.008Z,13.50
2023-05-06T03:09:01.397Z,13.50
2023-05-06T03:11:32.516Z,13.50
2023-05-06T03:14:05.768Z,13.30
2023-05-06T03:16:38.041Z,13.50
2023-05-06T03:19:07.062Z,13.50
2023-05-06T03:21:36.356Z,13.50
2023-05-06T03:24:05.835Z,13.50
2023-05-06T03:26:34.848Z,13.50
2023-05-06T03:29:05.255Z,13.50
2023-05-06T03:31:34.371Z,12.90
2023-05-06T03:34:05.992Z,13.50
2023-05-06T03:36:35.961Z,13.50
2023-05-06T03:39:05.069Z,13.60
2023-05-06T03:41:35.993Z,13.50
2023-05-06T03:44:05.371Z,13.50
2023-05-06T03:46:34.303Z,13.50
2023-05-06T03:49:03.831Z,13.50
2023-05-06T03:51:34.335Z,13.50
2023-05-06T03:54:03.792Z,13.50
2023-05-06T03:56:36.388Z,13.50
2023-05-06T03:59:06.517Z,13.50
2023-05-06T04:01:35.639Z,13.50
2023-05-06T04:04:05.114Z,13.50
2023-05-06T04:06:35.722Z,13.50
2023-05-06T04:09:06.552Z,13.50
2023-05-06T04:11:38.163Z,13.50
2023-05-06T04:14:09.131Z,13.60
2023-05-06T04:16:39.308Z,13.60
2023-05-06T04:19:09.215Z,13.60
2023-05-06T04:21:39.831Z,13.40
2023-05-06T04:24:13.990Z,13.70
2023-05-06T04:27:02.740Z,13.70
2023-05-06T04:29:31.960Z,13.80
2023-05-06T04:32:03.816Z,13.80
2023-05-06T04:34:36.469Z,13.80
2023-05-06T04:37:08.552Z,13.90
2023-05-06T04:39:47.771Z,13.90
2023-05-06T04:42:17.411Z,13.90
2023-05-06T04:44:55.528Z,14.00
2023-05-06T04:47:30.004Z,14.00
2023-05-06T04:49:59.000Z,14.00
2023-05-06T04:52:30.759Z,14.10
2023-05-06T04:54:59.914Z,14.10
2023-05-06T04:57:29.034Z,14.20
2023-05-06T04:59:58.892Z,14.20
2023-05-06T05:02:28.875Z,14.20
2023-05-06T05:04:58.304Z,14.20
2023-05-06T05:07:27.626Z,14.30
2023-05-06T05:09:58.126Z,14.30
2023-05-06T05:12:27.499Z,14.30
2023-05-06T05:14:56.511Z,14.40
2023-05-06T05:17:25.854Z,14.40
2023-05-06T05:19:55.070Z,14.40
2023-05-06T05:22:24.340Z,14.50
2023-05-06T05:24:53.400Z,14.50
2023-05-06T05:27:23.960Z,14.50
2023-05-06T05:29:54.305Z,14.60
2023-05-06T05:32:23.808Z,14.60
2023-05-06T05:34:52.896Z,14.70
2023-05-06T05:37:22.168Z,14.70
2023-05-06T05:39:51.268Z,14.70
2023-05-06T05:42:22.459Z,14.70
2023-05-06T05:44:51.971Z,14.70
2023-05-06T05:47:21.557Z,14.70
2023-05-06T05:49:50.681Z,14.70
2023-05-06T05:52:20.424Z,14.70
2023-05-06T05:54:49.510Z,14.80
2023-05-06T05:57:18.751Z,14.80
2023-05-06T05:59:49.230Z,14.80
2023-05-06T06:02:21.391Z,14.80
2023-05-06T06:04:51.223Z,14.90
2023-05-06T06:07:20.233Z,14.90
2023-05-06T06:09:49.604Z,14.90
2023-05-06T06:12:19.554Z,15.00
2023-05-06T06:14:50.370Z,15.00
2023-05-06T06:17:23.679Z,15.00
2023-05-06T06:19:57.416Z,15.10
2023-05-06T06:22:26.669Z,15.10
2023-05-06T06:24:57.902Z,15.20
2023-05-06T06:27:26.996Z,15.20
2023-05-06T06:29:57.276Z,15.20
2023-05-06T06:32:26.660Z,15.20
2023-05-06T06:34:55.890Z,15.20
2023-05-06T06:37:25.571Z,15.20
2023-05-06T06:39:54.487Z,15.20
2023-05-06T06:42:23.558Z,15.20
2023-05-06T06:45:10.874Z,15.20
2023-05-06T06:47:39.983Z,15.20
2023-05-06T06:50:10.598Z,15.30
2023-05-06T06:52:39.891Z,15.30
2023-05-06T06:55:15.059Z,15.40
2023-05-06T06:57:43.917Z,15.50
2023-05-06T07:00:15.473Z,15.60
2023-05-06T07:02:48.335Z,15.70
2023-05-06T07:05:17.585Z,15.70
2023-05-06T07:08:15.738Z,16.10
2023-05-06T07:10:44.892Z,16.30
2023-05-06T07:13:14.166Z,16.50
2023-05-06T07:15:44.558Z,16.70
2023-05-06T07:18:13.584Z,16.70
2023-05-06T07:20:42.624Z,16.80
2023-05-06T07:23:11.535Z,16.80
2023-05-06T07:25:40.453Z,16.80
2023-05-06T07:28:09.346Z,16.80
2023-05-06T07:30:39.956Z,16.70
2023-05-06T07:33:10.428Z,16.70
2023-05-06T07:35:40.700Z,16.70
2023-05-06T07:38:10.093Z,16.60
2023-05-06T07:40:38.966Z,16.60
2023-05-06T07:43:08.495Z,16.60
2023-05-06T07:45:37.748Z,16.60
2023-05-06T07:48:07.334Z,16.50
2023-05-06T07:50:37.933Z,16.50
2023-05-06T07:53:06.882Z,16.50
2023-05-06T07:55:37.771Z,16.40
2023-05-06T07:58:06.782Z,16.40
2023-05-06T08:00:35.960Z,16.50
2023-05-06T08:03:04.972Z,16.50
2023-05-06T08:05:34.058Z,16.50
2023-05-06T08:08:04.643Z,16.50
2023-05-06T08:10:33.845Z,16.50
2023-05-06T08:13:02.976Z,16.60
2023-05-06T08:15:32.057Z,16.70
2023-05-06T08:18:13.740Z,16.70
2023-05-06T08:20:50.171Z,16.80
2023-05-06T08:23:20.595Z,16.90
2023-05-06T08:25:56.929Z,17.00
2023-05-06T08:28:26.262Z,17.00
2023-05-06T08:30:55.251Z,17.10
2023-05-06T08:33:24.159Z,17.10
2023-05-06T08:35:54.156Z,17.00
2023-05-06T08:38:24.553Z,17.00
2023-05-06T08:40:54.978Z,17.00
2023-05-06T08:43:27.658Z,17.00
2023-05-06T08:45:57.044Z,17.00
2023-05-06T08:48:26.199Z,17.00
2023-05-06T08:50:57.339Z,17.10
2023-05-06T08:53:28.060Z,17.10
2023-05-06T08:55:58.413Z,17.20
2023-05-06T08:58:47.326Z,17.20
2023-05-06T09:01:16.952Z,17.30
2023-05-06T09:03:46.342Z,17.30
2023-05-06T09:06:15.304Z,17.40
2023-05-06T09:08:45.701Z,17.40
2023-05-06T09:11:25.318Z,17.50
2023-05-06T09:14:09.803Z,17.50
2023-05-06T09:16:40.092Z,17.50
2023-05-06T09:19:09.256Z,17.50
2023-05-06T09:21:39.227Z,17.50
2023-05-06T09:24:11.378Z,17.60
2023-05-06T09:26:42.270Z,17.60
2023-05-06T09:29:12.141Z,17.60
2023-05-06T09:31:45.256Z,17.70
2023-05-06T09:34:15.114Z,17.80
2023-05-06T09:36:44.198Z,17.90
2023-05-06T09:39:14.951Z,18.00
2023-05-06T09:41:46.585Z,18.10
2023-05-06T09:44:16.292Z,18.20
2023-05-06T09:46:46.902Z,18.30
2023-05-06T09:49:19.809Z,18.50
2023-05-06T09:51:54.189Z,18.60
2023-05-06T09:54:26.229Z,18.70
2023-05-06T09:56:57.528Z,18.80
2023-05-06T09:59:30.930Z,19.00
2023-05-06T10:02:01.054Z,19.10
2023-05-06T10:04:32.383Z,19.90
2023-05-06T10:07:03.128Z,19.20
2023-05-06T10:09:35.115Z,19.20
2023-05-06T10:12:04.979Z,19.20
2023-05-06T10:14:34.224Z,19.20
2023-05-06T10:17:03.797Z,19.20
2023-05-06T10:19:34.226Z,19.20
2023-05-06T10:22:12.391Z,19.20
2023-05-06T10:24:53.451Z,19.30
2023-05-06T10:27:26.680Z,19.30
2023-05-06T10:30:01.265Z,19.40
2023-05-06T10:32:34.320Z,19.50
2023-05-06T10:35:12.541Z,19.60
2023-05-06T10:37:43.034Z,19.60
2023-05-06T10:40:14.078Z,19.60
2023-05-06T10:42:43.336Z,19.60
2023-05-06T10:45:15.636Z,19.60
2023-05-06T10:48:13.214Z,19.60
2023-05-06T10:50:42.680Z,19.60
2023-05-06T10:53:12.852Z,19.60
2023-05-06T10:55:43.364Z,19.60
2023-05-06T10:58:16.148Z,19.60
2023-05-06T11:00:55.227Z,19.60
2023-05-06T11:03:25.685Z,19.70
2023-05-06T11:05:54.962Z,19.80
2023-05-06T11:08:25.193Z,19.80
2023-05-06T11:10:56.235Z,19.90
2023-05-06T11:13:27.799Z,20.00
2023-05-06T11:15:57.775Z,20.10
2023-05-06T11:18:45.902Z,20.30
2023-05-06T11:21:40.365Z,20.40
2023-05-06T11:24:14.067Z,20.60
2023-05-06T11:26:45.585Z,20.80
2023-05-06T11:29:17.388Z,20.90
2023-05-06T11:31:47.253Z,21.00
2023-05-06T11:34:23.354Z,21.20
2023-05-06T11:37:00.896Z,21.40
2023-05-06T11:39:31.040Z,21.50
2023-05-06T11:42:03.180Z,21.70
2023-05-06T11:44:33.498Z,21.90
2023-05-06T11:47:04.809Z,22.00
2023-05-06T11:49:38.644Z,22.00
2023-05-06T11:52:08.030Z,22.10
2023-05-06T11:54:37.843Z,22.10
2023-05-06T11:57:11.852Z,22.10
2023-05-06T11:59:42.082Z,21.90
2023-05-06T12:02:14.172Z,21.80
2023-05-06T12:04:44.802Z,21.70
2023-05-06T12:07:15.036Z,21.80
2023-05-06T12:09:45.903Z,21.90
2023-05-06T12:12:18.143Z,22.00
2023-05-06T12:14:48.817Z,22.10
2023-05-06T12:17:37.511Z,22.20
2023-05-06T12:20:08.235Z,22.20
2023-05-06T12:22:39.347Z,22.20
2023-05-06T12:25:15.638Z,22.20
2023-05-06T12:27:46.149Z,22.20
2023-05-06T12:30:15.708Z,22.20
2023-05-06T12:33:01.105Z,22.20
2023-05-06T12:35:31.401Z,22.20
2023-05-06T12:38:12.567Z,22.20
2023-05-06T12:40:42.166Z,22.20
2023-05-06T12:43:13.408Z,22.00
2023-05-06T12:45:42.553Z,22.30
2023-05-06T12:48:18.128Z,22.30
2023-05-06T12:50:48.040Z,22.30
2023-05-06T12:53:33.232Z,22.30
2023-05-06T12:56:02.191Z,22.40
2023-05-06T12:58:37.573Z,22.30
2023-05-06T13:01:07.782Z,22.20
2023-05-06T13:03:38.787Z,22.10
2023-05-06T13:06:08.191Z,22.10
2023-05-06T13:08:36.990Z,22.10
2023-05-06T13:11:05.829Z,22.20
2023-05-06T13:13:36.404Z,22.20
2023-05-06T13:16:05.776Z,22.30
2023-05-06T13:18:36.076Z,22.30
2023-05-06T13:21:05.300Z,22.40
2023-05-06T13:23:35.308Z,22.10
2023-05-06T13:26:06.204Z,22.60
2023-05-06T13:28:37.128Z,22.60
2023-05-06T13:31:06.557Z,22.60
2023-05-06T13:33:35.982Z,22.60
2023-05-06T13:36:05.648Z,22.60
2023-05-06T13:38:34.707Z,22.50
2023-05-06T13:41:03.567Z,22.40
2023-05-06T13:43:32.457Z,22.30
2023-05-06T13:46:02.868Z,22.20
2023-05-06T13:48:31.877Z,22.10
2023-05-06T13:51:01.040Z,22.00
2023-05-06T13:53:29.972Z,21.90
2023-05-06T13:56:17.827Z,21.90
2023-05-06T13:58:47.129Z,21.80
2023-05-06T14:01:17.981Z,21.70
2023-05-06T14:03:46.958Z,21.70
2023-05-06T14:06:16.087Z,21.70
2023-05-06T14:08:45.536Z,21.70
2023-05-06T14:11:14.723Z,21.70
2023-05-06T14:13:43.574Z,21.70
2023-05-06T14:16:12.536Z,21.60
2023-05-06T14:18:43.005Z,21.50
2023-05-06T14:21:12.042Z,21.30
2023-05-06T14:23:41.088Z,21.30
2023-05-06T14:26:10.000Z,21.20
2023-05-06T14:28:38.851Z,21.20
2023-05-06T14:31:07.751Z,21.10
2023-05-06T14:33:36.659Z,21.10
2023-05-06T14:36:07.730Z,21.10
2023-05-06T14:38:36.729Z,21.00
2023-05-06T14:41:05.729Z,20.90
2023-05-06T14:43:34.605Z,20.90
2023-05-06T14:46:03.636Z,20.80
2023-05-06T14:48:32.468Z,20.80
2023-05-06T14:51:01.481Z,20.80
2023-05-06T14:53:32.024Z,20.70
2023-05-06T14:56:01.103Z,20.70
2023-05-06T14:58:30.004Z,20.70
2023-05-06T15:00:59.049Z,20.70
2023-05-06T15:03:46.778Z,20.70
2023-05-06T15:06:15.759Z,20.70
2023-05-06T15:08:46.200Z,20.70
2023-05-06T15:11:15.258Z,20.60
2023-05-06T15:13:44.153Z,20.60
2023-05-06T15:16:13.239Z,20.50
2023-05-06T15:18:43.088Z,20.50
2023-05-06T15:21:13.500Z,20.40
2023-05-06T15:23:42.527Z,20.40
2023-05-06T15:26:12.754Z,20.30
2023-05-06T15:28:41.682Z,20.20
2023-05-06T15:31:11.132Z,20.20
2023-05-06T15:33:40.105Z,20.10
2023-05-06T15:36:09.778Z,20.00
2023-05-06T15:39:00.379Z,19.90
2023-05-06T15:41:33.101Z,19.80
2023-05-06T15:44:03.316Z,19.70
2023-05-06T15:46:33.348Z,19.70
2023-05-06T15:49:31.972Z,19.60
2023-05-06T15:51:51.960Z,19.60
2023-05-06T15:54:20.880Z,19.60
2023-05-06T15:56:51.293Z,19.50
2023-05-06T15:59:20.498Z,19.50
2023-05-06T16:04:21.459Z,19.50
2023-05-06T16:06:50.798Z,19.40
2023-05-06T16:09:19.724Z,19.30
2023-05-06T16:11:48.645Z,19.20
2023-05-06T16:14:18.899Z,19.10
2023-05-06T16:16:47.799Z,19.00
2023-05-06T16:19:17.229Z,18.90
2023-05-06T16:21:46.064Z,18.80
2023-05-06T16:24:15.194Z,18.60
2023-05-06T16:26:44.258Z,18.50
2023-05-06T16:29:13.217Z,18.30
2023-05-06T16:31:43.656Z,18.20
2023-05-06T16:34:15.511Z,18.10
2023-05-06T16:36:46.325Z,18.00
2023-05-06T16:39:15.861Z,17.80
2023-05-06T16:41:45.063Z,17.70
2023-05-06T16:44:14.303Z,17.60
2023-05-06T16:46:46.449Z,17.50
2023-05-06T16:49:16.303Z,17.40
2023-05-06T16:51:49.966Z,17.30
2023-05-06T16:54:20.236Z,17.20
2023-05-06T16:56:52.545Z,17.10
2023-05-06T16:59:23.379Z,17.10
2023-05-06T17:01:58.024Z,17.00
2023-05-06T17:04:27.334Z,17.00
2023-05-06T17:06:56.652Z,16.90
2023-05-06T17:09:25.984Z,16.90
2023-05-06T17:11:54.938Z,16.80
2023-05-06T17:14:24.136Z,16.70
2023-05-06T17:16:54.606Z,16.70
2023-05-06T17:19:23.512Z,16.60
2023-05-06T17:21:52.511Z,16.60
2023-05-06T17:24:21.371Z,16.50
2023-05-06T17:26:50.268Z,16.50
2023-05-06T17:29:22.227Z,16.40
2023-05-06T17:31:51.664Z,16.40
2023-05-06T17:36:56.121Z,16.30
2023-05-06T17:39:24.988Z,16.30
2023-05-06T17:41:54.475Z,16.20
2023-05-06T17:44:23.527Z,16.20
2023-05-06T17:46:52.405Z,16.10
2023-05-06T17:49:23.272Z,16.10
2023-05-06T17:51:52.384Z,16.00
2023-05-06T17:54:21.423Z,16.00
2023-05-06T17:56:53.128Z,16.00
2023-05-06T17:59:25.272Z,15.90
2023-05-06T18:01:55.362Z,15.90
2023-05-06T18:04:25.876Z,15.80
2023-05-06T18:06:54.900Z,15.80
2023-05-06T18:09:23.855Z,15.80
2023-05-06T18:11:53.280Z,15.70
2023-05-06T18:14:22.224Z,15.70
2023-05-06T18:16:51.063Z,15.70
2023-05-06T18:19:20.120Z,15.70
2023-05-06T18:21:50.548Z,15.60
2023-05-06T18:24:19.933Z,15.60
2023-05-06T18:26:48.861Z,15.60
2023-05-06T18:29:17.704Z,15.60
2023-05-06T18:31:46.824Z,15.60
2023-05-06T18:34:15.769Z,15.60
2023-05-06T18:36:44.631Z,15.60
2023-05-06T18:39:15.594Z,15.50
2023-05-06T18:41:44.668Z,15.50
2023-05-06T18:44:13.604Z,15.90
2023-05-06T18:46:42.981Z,15.40
2023-05-06T18:49:14.293Z,15.40
2023-05-06T18:51:43.419Z,15.40
2023-05-06T18:54:14.237Z,15.40
2023-05-06T18:56:46.857Z,15.30
2023-05-06T18:59:34.018Z,15.30
2023-05-06T19:02:03.854Z,15.30
2023-05-06T19:04:33.789Z,15.30
2023-05-06T19:07:03.215Z,15.30
2023-05-06T19:09:36.963Z,15.20
2023-05-06T19:12:07.748Z,15.20
2023-05-06T19:14:36.632Z,15.20
2023-05-06T19:17:06.841Z,15.20
2023-05-06T19:19:36.178Z,15.20
2023-05-06T19:22:05.155Z,15.10
2023-05-06T19:24:33.993Z,15.10
2023-05-06T19:27:03.245Z,15.10
2023-05-06T19:29:34.407Z,15.00
2023-05-06T19:32:03.821Z,15.00
2023-05-06T19:34:32.862Z,15.00
2023-05-06T19:37:01.688Z,14.90
2023-05-06T19:39:30.579Z,14.90
2023-05-06T19:41:59.561Z,14.80
2023-05-06T19:44:28.405Z,14.80
2023-05-06T19:47:12.996Z,14.70
2023-05-06T19:49:42.197Z,14.70
2023-05-06T19:52:11.227Z,14.60
2023-05-06T19:54:40.578Z,14.60
2023-05-06T19:57:09.600Z,14.60
2023-05-06T19:59:38.735Z,14.50
2023-05-06T20:02:13.902Z,14.50
2023-05-06T20:04:43.014Z,14.50
2023-05-06T20:07:12.716Z,14.50
2023-05-06T20:09:42.002Z,14.50
2023-05-06T20:12:11.488Z,14.50
2023-05-06T20:14:40.548Z,14.50
2023-05-06T20:17:11.216Z,14.40
2023-05-06T20:19:40.268Z,14.40
2023-05-06T20:22:09.796Z,14.30
2023-05-06T20:24:39.383Z,14.20
2023-05-06T20:27:08.772Z,14.20
2023-05-06T20:29:37.703Z,14.20
2023-05-06T20:32:07.135Z,14.10
2023-05-06T20:34:56.044Z,14.10
2023-05-06T20:37:25.786Z,14.10
2023-05-06T20:39:55.202Z,14.10
2023-05-06T20:42:24.222Z,14.00
2023-05-06T20:44:53.595Z,14.00
2023-05-06T20:47:22.589Z,14.00
2023-05-06T20:49:51.503Z,14.00
2023-05-06T20:52:22.588Z,14.00
2023-05-06T20:54:55.273Z,14.00
2023-05-06T20:57:24.803Z,14.00
2023-05-06T20:59:53.736Z,14.00
2023-05-06T21:02:22.745Z,13.90
2023-05-06T21:04:52.082Z,13.90
2023-05-06T21:07:22.482Z,13.90
2023-05-06T21:09:51.640Z,13.80
2023-05-06T21:12:20.531Z,13.80
2023-05-06T21:14:49.743Z,13.80
2023-05-06T21:17:19.280Z,13.70
2023-05-06T21:19:48.792Z,13.60
2023-05-06T21:22:18.487Z,13.60
2023-05-06T21:24:49.966Z,13.60
2023-05-06T21:27:19.020Z,13.50
2023-05-06T21:29:48.063Z,13.40
2023-05-06T21:32:16.960Z,13.40
2023-05-06T21:34:45.968Z,13.30
2023-05-06T21:37:15.053Z,13.30
2023-05-06T21:39:44.405Z,13.20
2023-05-06T21:42:16.654Z,13.10
2023-05-06T21:44:45.693Z,13.10
2023-05-06T21:47:14.607Z,13.10
2023-05-06T21:49:43.496Z,13.00
2023-05-06T21:52:12.506Z,13.00
2023-05-06T21:54:41.367Z,13.00
2023-05-06T21:57:12.656Z,13.00
2023-05-06T21:59:43.109Z,13.00
2023-05-06T22:02:12.177Z,13.00
2023-05-06T22:04:41.145Z,13.00
2023-05-06T22:07:10.047Z,13.00
2023-05-06T22:09:39.322Z,13.10
2023-05-06T22:12:09.580Z,13.10
2023-05-06T22:14:41.612Z,13.10
2023-05-06T22:17:20.801Z,13.10
2023-05-06T22:19:50.653Z,13.10
2023-05-06T22:22:20.178Z,13.10
2023-05-06T22:24:49.576Z,13.20
2023-05-06T22:27:18.416Z,13.10
2023-05-06T22:29:47.339Z,13.10
2023-05-06T22:32:22.934Z,13.10
2023-05-06T22:34:52.136Z,13.10
2023-05-06T22:37:21.963Z,13.10
2023-05-06T22:39:53.224Z,13.00
2023-05-06T22:42:26.712Z,13.00
2023-05-06T22:44:55.636Z,13.00
2023-05-06T22:47:25.968Z,13.00
2023-05-06T22:49:54.834Z,12.90
2023-05-06T22:52:25.543Z,12.90
2023-05-06T22:54:55.228Z,12.90
2023-05-06T22:57:25.493Z,12.80
2023-05-06T22:59:54.464Z,12.80
2023-05-06T23:02:24.903Z,12.80
2023-05-06T23:04:53.803Z,12.70
2023-05-06T23:07:22.691Z,12.70
2023-05-06T23:09:51.631Z,12.70
2023-05-06T23:12:20.722Z,12.70
2023-05-06T23:14:49.624Z,12.60
2023-05-06T23:17:18.746Z,12.60
2023-05-06T23:19:49.039Z,12.60
2023-05-06T23:22:17.994Z,12.50
2023-05-06T23:24:47.023Z,12.50
2023-05-06T23:27:15.916Z,12.50
2023-05-06T23:29:44.982Z,12.50
2023-05-06T23:32:13.825Z,12.50
2023-05-06T23:34:42.770Z,12.50
2023-05-06T23:37:13.227Z,12.50
2023-05-06T23:39:42.119Z,12.50
2023-05-06T23:42:11.338Z,12.50
2023-05-06T23:44:40.203Z,12.60
2023-05-06T23:47:09.101Z,12.60
2023-05-06T23:49:38.078Z,12.50
2023-05-06T23:52:07.244Z,12.50
2023-05-06T23:54:37.836Z,12.60
2023-05-06T23:57:06.788Z,12.50
2023-05-06T23:59:35.585Z,12.50
